createdAt,value
2023-03-19T00:00:29.504Z,100361.00
2023-03-19T00:02:56.730Z,100311.88
2023-03-19T00:05:23.951Z,100349.78
2023-03-19T00:07:51.355Z,100352.34
2023-03-19T00:10:18.521Z,100348.91
2023-03-19T00:12:45.962Z,100355.81
2023-03-19T00:15:14.792Z,100342.06
2023-03-19T00:17:43.381Z,100342.09
2023-03-19T00:20:12.944Z,100348.19
2023-03-19T00:22:40.561Z,100350.69
2023-03-19T00:25:10.122Z,100354.91
2023-03-19T00:27:38.563Z,100357.50
2023-03-19T00:30:07.945Z,100352.34
2023-03-19T00:32:36.074Z,100354.03
2023-03-19T00:35:04.228Z,100355.75
2023-03-19T00:37:31.267Z,100352.31
2023-03-19T00:39:58.597Z,100356.56
2023-03-19T00:42:26.371Z,100359.09
2023-03-19T00:44:53.554Z,100347.03
2023-03-19T00:47:20.712Z,100363.28
2023-03-19T00:49:47.796Z,100357.25
2023-03-19T00:52:15.033Z,100357.22
2023-03-19T00:54:42.210Z,100368.34
2023-03-19T00:57:09.475Z,100359.75
2023-03-19T00:59:36.909Z,100358.00
2023-03-19T01:02:04.821Z,100359.69
2023-03-19T01:04:31.941Z,100367.34
2023-03-19T01:09:27.015Z,100360.41
2023-03-19T01:11:54.312Z,100358.69
2023-03-19T01:14:22.127Z,100365.47
2023-03-19T01:16:49.302Z,100361.97
2023-03-19T01:19:16.709Z,100368.81
2023-03-19T01:21:46.674Z,100342.06
2023-03-19T01:24:18.158Z,100360.16
2023-03-19T01:26:48.324Z,100375.56
2023-03-19T01:29:26.721Z,100370.41
2023-03-19T01:31:56.178Z,100367.84
2023-03-19T01:34:42.023Z,100370.41
2023-03-19T01:37:11.285Z,100373.84
2023-03-19T01:39:39.576Z,100367.84
2023-03-19T01:42:10.575Z,100358.31
2023-03-19T01:44:49.541Z,100369.44
2023-03-19T01:47:43.610Z,100370.28
2023-03-19T01:50:22.374Z,100368.53
2023-03-19T01:52:53.098Z,100368.44
2023-03-19T01:55:30.903Z,100364.94
2023-03-19T01:58:24.926Z,100352.91
2023-03-19T02:01:11.570Z,100360.59
2023-03-19T02:03:42.975Z,100363.97
2023-03-19T02:06:24.987Z,100357.91
2023-03-19T02:08:53.097Z,100361.34
2023-03-19T02:11:21.181Z,100360.44
2023-03-19T02:13:48.953Z,100366.41
2023-03-19T02:16:16.284Z,100357.84
2023-03-19T02:18:44.533Z,100368.09
2023-03-19T02:21:16.506Z,100371.41
2023-03-19T02:23:52.402Z,100368.81
2023-03-19T02:26:26.786Z,100369.72
2023-03-19T02:28:59.691Z,100368.84
2023-03-19T02:31:32.047Z,100366.25
2023-03-19T02:34:06.312Z,100364.53
2023-03-19T02:36:37.951Z,100365.41
2023-03-19T02:39:09.711Z,100360.28
2023-03-19T02:41:39.860Z,100349.13
2023-03-19T02:44:08.650Z,100361.94
2023-03-19T02:46:35.914Z,100361.00
2023-03-19T02:49:03.052Z,100364.44
2023-03-19T02:51:30.169Z,100369.63
2023-03-19T02:53:57.366Z,100371.34
2023-03-19T02:56:26.456Z,100369.63
2023-03-19T02:58:53.640Z,100373.00
2023-03-19T03:01:21.165Z,100378.13
2023-03-19T03:03:48.311Z,100364.44
2023-03-19T03:06:16.036Z,100366.13
2023-03-19T03:08:43.057Z,100364.44
2023-03-19T03:11:10.123Z,100359.38
2023-03-19T03:13:37.431Z,100357.59
2023-03-19T03:16:04.741Z,100346.34
2023-03-19T03:18:31.850Z,100361.81
2023-03-19T03:20:58.954Z,100356.72
2023-03-19T03:23:26.654Z,100363.59
2023-03-19T03:25:53.717Z,100373.00
2023-03-19T03:28:21.290Z,100365.31
2023-03-19T03:30:49.301Z,100373.06
2023-03-19T03:33:17.631Z,100372.22
2023-03-19T03:35:44.938Z,100371.28
2023-03-19T03:38:12.912Z,100374.66
2023-03-19T03:40:40.067Z,100379.78
2023-03-19T03:43:07.189Z,100379.69
2023-03-19T03:45:35.671Z,100371.16
2023-03-19T03:48:03.507Z,100377.94
2023-03-19T03:50:30.831Z,100374.53
2023-03-19T03:53:02.078Z,100374.53
2023-03-19T03:55:29.267Z,100377.94
2023-03-19T03:57:56.756Z,100377.06
2023-03-19T04:00:24.706Z,100374.44
2023-03-19T04:02:51.997Z,100370.94
2023-03-19T04:05:19.595Z,100365.72
2023-03-19T04:07:47.109Z,100367.34
2023-03-19T04:10:15.669Z,100366.44
2023-03-19T04:12:42.862Z,100375.91
2023-03-19T04:15:11.410Z,100377.63
2023-03-19T04:17:40.653Z,100382.78
2023-03-19T04:20:09.333Z,100388.78
2023-03-19T04:22:36.782Z,100402.44
2023-03-19T04:25:05.165Z,100392.09
2023-03-19T04:27:32.480Z,100400.66
2023-03-19T04:29:59.720Z,100397.22
2023-03-19T04:32:27.266Z,100399.72
2023-03-19T04:34:54.660Z,100404.03
2023-03-19T04:37:21.890Z,100408.31
2023-03-19T04:39:51.628Z,100389.38
2023-03-19T04:42:18.846Z,100387.81
2023-03-19T04:44:52.678Z,100386.09
2023-03-19T04:47:20.539Z,100387.78
2023-03-19T04:49:57.518Z,100380.84
2023-03-19T04:52:26.306Z,100387.78
2023-03-19T04:54:54.464Z,100367.25
2023-03-19T04:57:22.537Z,100384.38
2023-03-19T04:59:51.742Z,100376.69
2023-03-19T05:02:20.071Z,100379.16
2023-03-19T05:04:47.168Z,100380.81
2023-03-19T05:07:15.729Z,100373.97
2023-03-19T05:09:44.235Z,100379.16
2023-03-19T05:12:12.548Z,100379.25
2023-03-19T05:14:49.482Z,100384.41
2023-03-19T05:17:36.951Z,100389.63
2023-03-19T05:20:20.625Z,100382.75
2023-03-19T05:23:03.065Z,100378.63
2023-03-19T05:25:38.369Z,100381.13
2023-03-19T05:28:08.578Z,100377.72
2023-03-19T05:30:36.394Z,100382.97
2023-03-19T05:33:08.935Z,100394.16
2023-03-19T05:35:40.723Z,100390.81
2023-03-19T05:38:16.393Z,100385.72
2023-03-19T05:40:47.542Z,100395.19
2023-03-19T05:43:23.981Z,100391.84
2023-03-19T05:45:55.471Z,100391.88
2023-03-19T05:48:27.747Z,100385.94
2023-03-19T05:50:54.898Z,100397.16
2023-03-19T05:53:23.348Z,100399.81
2023-03-19T05:56:10.232Z,100401.66
2023-03-19T05:58:48.717Z,100413.66
2023-03-19T06:01:21.073Z,100407.75
2023-03-19T06:03:48.540Z,100414.63
2023-03-19T06:06:16.239Z,100408.66
2023-03-19T06:08:45.554Z,100413.03
2023-03-19T06:11:23.525Z,100419.03
2023-03-19T06:14:03.825Z,100425.13
2023-03-19T06:16:37.237Z,100417.44
2023-03-19T06:19:04.412Z,100418.34
2023-03-19T06:21:31.764Z,100418.38
2023-03-19T06:24:02.498Z,100420.13
2023-03-19T06:26:34.378Z,100422.72
2023-03-19T06:29:05.258Z,100431.34
2023-03-19T06:31:33.186Z,100428.81
2023-03-19T06:34:03.177Z,100428.81
2023-03-19T06:36:38.526Z,100432.31
2023-03-19T06:39:06.060Z,100430.69
2023-03-19T06:41:33.051Z,100430.75
2023-03-19T06:44:11.696Z,100422.31
2023-03-19T06:46:38.819Z,100426.66
2023-03-19T06:49:05.833Z,100433.59
2023-03-19T06:51:32.868Z,100436.25
2023-03-19T06:53:59.984Z,100432.94
2023-03-19T06:56:27.436Z,100439.88
2023-03-19T06:58:54.506Z,100448.50
2023-03-19T07:01:22.205Z,100439.16
2023-03-19T07:03:49.548Z,100446.88
2023-03-19T07:06:16.734Z,100442.59
2023-03-19T07:08:46.674Z,100449.47
2023-03-19T07:11:15.010Z,100434.91
2023-03-19T07:13:42.304Z,100452.13
2023-03-19T07:16:09.552Z,100446.19
2023-03-19T07:18:36.814Z,100440.22
2023-03-19T07:21:04.189Z,100450.53
2023-03-19T07:23:31.177Z,100450.63
2023-03-19T07:25:58.753Z,100455.81
2023-03-19T07:28:25.970Z,100434.41
2023-03-19T07:30:53.734Z,100443.94
2023-03-19T07:33:22.184Z,100457.72
2023-03-19T07:35:49.798Z,100450.13
2023-03-19T07:38:17.257Z,100452.81
2023-03-19T07:40:55.016Z,100456.38
2023-03-19T07:43:26.328Z,100456.44
2023-03-19T07:45:53.741Z,100454.81
2023-03-19T07:48:21.109Z,100465.22
2023-03-19T07:50:51.453Z,100460.16
2023-03-19T07:53:18.679Z,100455.91
2023-03-19T07:55:45.941Z,100459.41
2023-03-19T07:58:13.115Z,100467.19
2023-03-19T08:00:40.296Z,100454.34
2023-03-19T08:03:07.380Z,100450.13
2023-03-19T08:05:34.830Z,100451.03
2023-03-19T08:08:02.182Z,100456.19
2023-03-19T08:10:29.444Z,100448.44
2023-03-19T08:12:56.797Z,100455.34
2023-03-19T08:15:23.839Z,100453.59
2023-03-19T08:17:58.253Z,100453.56
2023-03-19T08:20:25.539Z,100447.50
2023-03-19T08:22:52.985Z,100446.56
2023-03-19T08:25:20.626Z,100440.44
2023-03-19T08:27:48.028Z,100429.19
2023-03-19T08:30:16.038Z,100430.75
2023-03-19T08:32:45.103Z,100435.78
2023-03-19T08:35:12.788Z,100433.97
2023-03-19T08:37:40.140Z,100434.81
2023-03-19T08:40:07.938Z,100429.53
2023-03-19T08:42:35.236Z,100425.09
2023-03-19T08:45:02.346Z,100425.97
2023-03-19T08:47:29.460Z,100431.06
2023-03-19T08:49:56.697Z,100428.59
2023-03-19T08:52:24.028Z,100428.69
2023-03-19T08:54:51.295Z,100436.25
2023-03-19T08:57:18.578Z,100434.31
2023-03-19T08:59:45.862Z,100427.19
2023-03-19T09:02:13.576Z,100432.91
2023-03-19T09:04:43.936Z,100438.81
2023-03-19T09:07:15.913Z,100441.59
2023-03-19T09:09:44.210Z,100441.69
2023-03-19T09:12:14.115Z,100436.63
2023-03-19T09:14:41.473Z,100433.16
2023-03-19T09:17:09.220Z,100438.19
2023-03-19T09:19:37.254Z,100437.44
2023-03-19T09:22:06.216Z,100440.19
2023-03-19T09:24:33.405Z,100437.59
2023-03-19T09:27:00.652Z,100433.00
2023-03-19T09:29:28.039Z,100432.63
2023-03-19T09:31:55.099Z,100432.28
2023-03-19T09:34:22.267Z,100437.47
2023-03-19T09:36:49.303Z,100432.19
2023-03-19T09:39:16.528Z,100430.22
2023-03-19T09:42:00.173Z,100428.38
2023-03-19T09:44:36.419Z,100426.56
2023-03-19T09:47:24.267Z,100425.72
2023-03-19T09:49:53.614Z,100420.47
2023-03-19T09:52:50.182Z,100419.56
2023-03-19T09:55:41.635Z,100426.38
2023-03-19T09:58:18.616Z,100419.31
2023-03-19T10:00:50.742Z,100409.59
2023-03-19T10:03:39.492Z,100410.22
2023-03-19T10:06:29.680Z,100410.91
2023-03-19T10:09:33.226Z,100405.69
2023-03-19T10:12:09.738Z,100413.56
2023-03-19T10:14:51.914Z,100411.84
2023-03-19T10:17:39.876Z,100409.50
2023-03-19T10:20:10.777Z,100422.53
2023-03-19T10:22:48.384Z,100415.59
2023-03-19T10:25:26.641Z,100419.09
2023-03-19T10:28:01.743Z,100422.66
2023-03-19T10:30:33.899Z,100414.13
2023-03-19T10:33:15.866Z,100416.00
2023-03-19T10:35:52.441Z,100421.31
2023-03-19T10:38:22.788Z,100414.50
2023-03-19T10:41:08.827Z,100411.16
2023-03-19T10:43:37.502Z,100407.72
2023-03-19T10:46:04.777Z,100405.91
2023-03-19T10:48:32.735Z,100403.25
2023-03-19T10:51:04.828Z,100405.84
2023-03-19T10:53:37.907Z,100394.69
2023-03-19T10:56:08.697Z,100407.59
2023-03-19T10:58:37.699Z,100399.75
2023-03-19T11:01:12.453Z,100404.00
2023-03-19T11:03:42.565Z,100401.28
2023-03-19T11:06:56.174Z,100391.56
2023-03-19T11:09:38.686Z,100401.63
2023-03-19T11:12:24.688Z,100400.59
2023-03-19T11:14:53.679Z,100403.03
2023-03-19T11:17:22.847Z,100392.59
2023-03-19T11:19:59.867Z,100399.47
2023-03-19T11:22:36.940Z,100401.22
2023-03-19T11:25:19.140Z,100401.28
2023-03-19T11:27:59.009Z,100403.09
2023-03-19T11:30:33.018Z,100401.47
2023-03-19T11:33:17.016Z,100395.38
2023-03-19T11:36:10.955Z,100398.00
2023-03-19T11:38:56.892Z,100396.28
2023-03-19T11:41:44.894Z,100400.59
2023-03-19T11:44:15.300Z,100398.91
2023-03-19T11:46:55.834Z,100398.16
2023-03-19T11:49:28.779Z,100403.31
2023-03-19T11:52:02.883Z,100408.44
2023-03-19T11:55:00.782Z,100403.03
2023-03-19T11:57:47.578Z,100397.69
2023-03-19T12:00:36.978Z,100382.19
2023-03-19T12:03:25.733Z,100385.56
2023-03-19T12:06:37.275Z,100387.28
2023-03-19T12:09:15.713Z,100382.88
2023-03-19T12:11:45.601Z,100385.41
2023-03-19T12:14:37.695Z,100380.22
2023-03-19T12:17:21.691Z,100371.72
2023-03-19T12:20:03.631Z,100377.88
2023-03-19T12:22:43.065Z,100377.00
2023-03-19T12:25:32.887Z,100368.44
2023-03-19T12:28:23.040Z,100374.50
2023-03-19T12:31:01.358Z,100367.66
2023-03-19T12:33:43.898Z,100372.84
2023-03-19T12:36:17.587Z,100371.16
2023-03-19T12:38:48.701Z,100368.59
2023-03-19T12:41:23.634Z,100374.69
2023-03-19T12:44:05.613Z,100377.34
2023-03-19T12:46:44.733Z,100379.09
2023-03-19T12:49:16.713Z,100370.47
2023-03-19T12:51:52.327Z,100368.72
2023-03-19T12:54:31.857Z,100364.38
2023-03-19T12:57:20.215Z,100363.56
2023-03-19T13:00:02.980Z,100368.78
2023-03-19T13:03:02.344Z,100369.69
2023-03-19T13:05:57.485Z,100366.31
2023-03-19T13:08:34.348Z,100360.34
2023-03-19T13:11:08.940Z,100374.16
2023-03-19T13:13:51.417Z,100371.56
2023-03-19T13:16:59.747Z,100369.03
2023-03-19T13:19:44.700Z,100372.59
2023-03-19T13:22:16.890Z,100365.66
2023-03-19T13:24:47.217Z,100365.66
2023-03-19T13:27:34.377Z,100365.72
2023-03-19T13:30:10.595Z,100369.16
2023-03-19T13:32:41.511Z,100360.53
2023-03-19T13:35:16.744Z,100363.97
2023-03-19T13:37:44.726Z,100363.91
2023-03-19T13:40:42.397Z,100362.22
2023-03-19T13:43:28.998Z,100365.72
2023-03-19T13:46:39.526Z,100366.63
2023-03-19T13:49:22.917Z,100360.59
2023-03-19T13:51:51.177Z,100357.09
2023-03-19T13:54:23.299Z,100357.09
2023-03-19T13:57:01.475Z,100349.28
2023-03-19T13:59:37.067Z,100350.13
2023-03-19T14:02:16.341Z,100346.66
2023-03-19T14:04:58.829Z,100338.00
2023-03-19T14:07:29.101Z,100344.88
2023-03-19T14:10:00.292Z,100344.03
2023-03-19T14:12:39.199Z,100345.78
2023-03-19T14:15:09.583Z,100341.47
2023-03-19T14:17:45.711Z,100339.81
2023-03-19T14:20:17.365Z,100343.25
2023-03-19T14:23:11.814Z,100336.31
2023-03-19T14:26:05.319Z,100342.41
2023-03-19T14:28:59.937Z,100332.94
2023-03-19T14:31:51.016Z,100334.75
2023-03-19T14:34:39.174Z,100336.44
2023-03-19T14:37:28.588Z,100329.56
2023-03-19T14:40:02.936Z,100327.81
2023-03-19T14:42:47.298Z,100325.25
2023-03-19T14:45:33.014Z,100331.25
2023-03-19T14:48:33.991Z,100331.31
2023-03-19T14:51:32.173Z,100320.97
2023-03-19T14:54:23.930Z,100336.63
2023-03-19T14:56:51.209Z,100333.19
2023-03-19T14:59:18.883Z,100329.75
2023-03-19T15:01:51.012Z,100331.56
2023-03-19T15:04:23.037Z,100332.44
2023-03-19T15:06:57.895Z,100328.13
2023-03-19T15:09:31.285Z,100340.28
2023-03-19T15:12:40.902Z,100338.63
2023-03-19T15:15:13.974Z,100339.53
2023-03-19T15:17:42.543Z,100335.25
2023-03-19T15:20:20.228Z,100334.44
2023-03-19T15:23:01.082Z,100331.09
2023-03-19T15:25:28.777Z,100336.25
2023-03-19T15:28:26.708Z,100331.91
2023-03-19T15:31:26.151Z,100337.16
2023-03-19T15:33:53.584Z,100343.28
2023-03-19T15:36:31.933Z,100337.31
2023-03-19T15:39:11.244Z,100337.34
2023-03-19T15:41:49.279Z,100338.28
2023-03-19T15:44:30.196Z,100322.03
2023-03-19T15:47:00.172Z,100337.53
2023-03-19T15:49:36.253Z,100338.47
2023-03-19T15:52:07.141Z,100349.69
2023-03-19T15:54:34.777Z,100351.44
2023-03-19T15:57:02.003Z,100349.75
2023-03-19T15:59:31.699Z,100344.63
2023-03-19T16:02:04.306Z,100349.84
2023-03-19T16:04:45.653Z,100355.06
2023-03-19T16:07:40.407Z,100346.59
2023-03-19T16:10:31.631Z,100356.06
2023-03-19T16:13:04.280Z,100365.56
2023-03-19T16:15:45.628Z,100362.16
2023-03-19T16:18:18.742Z,100354.47
2023-03-19T16:21:01.242Z,100365.75
2023-03-19T16:23:33.626Z,100360.66
2023-03-19T16:26:25.829Z,100369.34
2023-03-19T16:29:05.308Z,100370.25
2023-03-19T16:31:41.580Z,100367.75
2023-03-19T16:34:32.249Z,100368.66
2023-03-19T16:36:59.992Z,100366.13
2023-03-19T16:39:37.477Z,100366.22
2023-03-19T16:42:14.930Z,100362.84
2023-03-19T16:44:44.453Z,100362.06
2023-03-19T16:47:13.427Z,100366.38
2023-03-19T16:49:41.010Z,100368.13
2023-03-19T16:52:23.558Z,100368.16
2023-03-19T16:54:52.126Z,100363.88
2023-03-19T16:57:19.908Z,100376.81
2023-03-19T16:59:47.364Z,100364.75
2023-03-19T17:02:17.200Z,100366.56
2023-03-19T17:04:45.106Z,100370.06
2023-03-19T17:07:12.753Z,100366.69
2023-03-19T17:09:40.104Z,100377.09
2023-03-19T17:12:13.720Z,100375.47
2023-03-19T17:14:41.217Z,100376.34
2023-03-19T17:17:19.455Z,100366.06
2023-03-19T17:19:48.010Z,100363.50
2023-03-19T17:22:15.442Z,100363.56
2023-03-19T17:24:43.075Z,100372.19
2023-03-19T17:27:11.713Z,100362.75
2023-03-19T17:29:39.071Z,100369.66
2023-03-19T17:32:12.849Z,100375.69
2023-03-19T17:34:40.323Z,100377.47
2023-03-19T17:37:12.938Z,100374.03
2023-03-19T17:39:41.979Z,100379.22
2023-03-19T17:42:27.490Z,100374.03
2023-03-19T17:44:57.089Z,100368.03
2023-03-19T17:47:24.420Z,100376.69
2023-03-19T17:49:51.659Z,100376.69
2023-03-19T17:52:19.900Z,100376.69
2023-03-19T17:54:47.212Z,100370.75
2023-03-19T17:57:15.886Z,100377.66
2023-03-19T17:59:43.381Z,100377.69
2023-03-19T18:02:26.194Z,100383.72
2023-03-19T18:04:54.028Z,100384.63
2023-03-19T18:07:21.384Z,100388.09
2023-03-19T18:09:48.784Z,100384.66
2023-03-19T18:12:16.111Z,100379.53
2023-03-19T18:14:43.465Z,100381.25
2023-03-19T18:17:18.112Z,100386.41
2023-03-19T18:19:47.751Z,100372.63
2023-03-19T18:22:17.625Z,100369.22
2023-03-19T18:24:46.046Z,100372.63
2023-03-19T18:27:13.840Z,100375.22
2023-03-19T18:29:41.187Z,100376.09
2023-03-19T18:32:16.033Z,100374.38
2023-03-19T18:34:43.593Z,100383.00
2023-03-19T18:37:16.762Z,100379.53
2023-03-19T18:39:44.105Z,100381.28
2023-03-19T18:42:13.991Z,100375.25
2023-03-19T18:44:41.113Z,100374.44
2023-03-19T18:47:15.113Z,100382.16
2023-03-19T18:49:43.428Z,100368.41
2023-03-19T18:52:17.240Z,100374.44
2023-03-19T18:54:46.559Z,100377.03
2023-03-19T18:57:16.045Z,100372.75
2023-03-19T18:59:43.672Z,100371.03
2023-03-19T19:02:34.187Z,100372.75
2023-03-19T19:05:02.153Z,100371.06
2023-03-19T19:07:29.416Z,100372.78
2023-03-19T19:09:56.655Z,100371.09
2023-03-19T19:12:26.704Z,100384.84
2023-03-19T19:14:54.101Z,100380.53
2023-03-19T19:17:29.498Z,100382.22
2023-03-19T19:19:57.014Z,100377.94
2023-03-19T19:22:24.380Z,100383.13
2023-03-19T19:24:51.860Z,100383.97
2023-03-19T19:27:27.020Z,100385.69
2023-03-19T19:29:54.386Z,100379.69
2023-03-19T19:32:31.091Z,100382.25
2023-03-19T19:34:58.504Z,100384.84
2023-03-19T19:37:25.941Z,100365.03
2023-03-19T19:39:53.310Z,100372.78
2023-03-19T19:42:22.482Z,100379.66
2023-03-19T19:44:56.537Z,100379.63
2023-03-19T19:47:23.870Z,100383.03
2023-03-19T19:49:51.310Z,100383.91
2023-03-19T19:52:19.746Z,100378.72
2023-03-19T19:54:47.458Z,100380.44
2023-03-19T19:57:19.060Z,100386.47
2023-03-19T19:59:46.578Z,100386.44
2023-03-19T20:02:30.229Z,100388.16
2023-03-19T20:04:58.815Z,100393.28
2023-03-19T20:07:27.463Z,100393.28
2023-03-19T20:09:54.739Z,100389.84
2023-03-19T20:12:23.619Z,100395.84
2023-03-19T20:14:51.776Z,100396.69
2023-03-19T20:17:21.376Z,100400.13
2023-03-19T20:19:48.856Z,100403.53
2023-03-19T20:22:16.549Z,100402.69
2023-03-19T20:24:43.737Z,100389.78
2023-03-19T20:27:23.583Z,100401.81
2023-03-19T20:29:51.151Z,100398.34
2023-03-19T20:32:30.032Z,100396.59
2023-03-19T20:34:57.531Z,100396.59
2023-03-19T20:37:24.717Z,100396.59
2023-03-19T20:39:51.936Z,100396.56
2023-03-19T20:42:19.782Z,100399.97
2023-03-19T20:44:48.141Z,100401.72
2023-03-19T20:47:25.866Z,100410.25
2023-03-19T20:49:53.558Z,100408.56
2023-03-19T20:52:20.892Z,100405.97
2023-03-19T20:54:48.543Z,100403.41
2023-03-19T20:57:21.544Z,100405.13
2023-03-19T20:59:48.737Z,100410.25
2023-03-19T21:02:18.539Z,100405.97
2023-03-19T21:04:46.695Z,100405.91
2023-03-19T21:07:34.723Z,100405.06
2023-03-19T21:10:06.139Z,100409.34
2023-03-19T21:12:34.195Z,100412.75
2023-03-19T21:15:01.663Z,100407.63
2023-03-19T21:17:29.081Z,100403.28
2023-03-19T21:19:57.179Z,100417.03
2023-03-19T21:22:28.710Z,100413.59
2023-03-19T21:25:16.084Z,100405.00
2023-03-19T21:27:47.179Z,100409.28
2023-03-19T21:30:19.018Z,100409.28
2023-03-19T21:32:46.379Z,100408.41
2023-03-19T21:35:24.902Z,100411.81
2023-03-19T21:37:53.342Z,100407.53
2023-03-19T21:40:28.375Z,100409.25
2023-03-19T21:42:58.508Z,100399.84
2023-03-19T21:45:28.872Z,100404.13
2023-03-19T21:48:00.478Z,100404.97
2023-03-19T21:50:27.619Z,100398.06
2023-03-19T21:53:01.124Z,100396.34
2023-03-19T21:55:29.946Z,100399.78
2023-03-19T21:57:57.830Z,100399.78
2023-03-19T22:00:25.347Z,100392.88
2023-03-19T22:02:52.636Z,100392.03
2023-03-19T22:05:28.581Z,100398.06
2023-03-19T22:07:56.693Z,100398.06
2023-03-19T22:10:27.925Z,100392.91
2023-03-19T22:12:55.301Z,100399.78
2023-03-19T22:15:30.218Z,100386.03
2023-03-19T22:17:58.616Z,100391.19
2023-03-19T22:20:26.660Z,100387.72
2023-03-19T22:22:55.656Z,100391.19
2023-03-19T22:25:23.221Z,100390.31
2023-03-19T22:27:51.686Z,100387.72
2023-03-19T22:30:37.424Z,100387.66
2023-03-19T22:33:16.305Z,100379.06
2023-03-19T22:35:44.748Z,100370.50
2023-03-19T22:38:12.880Z,100382.50
2023-03-19T22:40:40.519Z,100384.19
2023-03-19T22:43:22.623Z,100384.19
2023-03-19T22:45:55.641Z,100375.56
2023-03-19T22:48:23.867Z,100374.69
2023-03-19T22:50:51.107Z,100375.56
2023-03-19T22:53:27.359Z,100380.66
2023-03-19T22:55:54.702Z,100378.94
2023-03-19T22:58:22.873Z,100378.06
2023-03-19T23:00:50.972Z,100378.94
2023-03-19T23:03:24.843Z,100386.66
2023-03-19T23:06:01.781Z,100380.59
2023-03-19T23:08:29.386Z,100386.59
2023-03-19T23:10:56.822Z,100377.13
2023-03-19T23:13:25.152Z,100384.84
2023-03-19T23:15:59.000Z,100386.56
2023-03-19T23:18:36.981Z,100377.13
2023-03-19T23:21:04.790Z,100379.69
2023-03-19T23:23:31.942Z,100371.94
2023-03-19T23:25:59.158Z,100371.97
2023-03-19T23:28:33.054Z,100371.94
2023-03-19T23:31:03.198Z,100377.94
2023-03-19T23:33:30.908Z,100371.91
2023-03-19T23:35:59.551Z,100375.31
2023-03-19T23:38:27.097Z,100373.56
2023-03-19T23:40:54.219Z,100378.75
2023-03-19T23:43:25.303Z,100376.19
2023-03-19T23:45:54.366Z,100373.56
2023-03-19T23:48:35.098Z,100378.72
2023-03-19T23:51:03.077Z,100377.00
2023-03-19T23:53:30.622Z,100376.94
2023-03-19T23:56:00.974Z,100382.94
2023-03-19T23:58:32.064Z,100381.16
